Time;durP1;ratioP1;P1;durP2;ratioP2;P2;SDS_P1;SDS_P2;PMS_P1;PMS_P2;Temp;Humidity;BMP_temperature;BMP_pressure;BME280_temperature;BME280_humidity;BME280_pressure;Samples;Min_cycle;Max_cycle;Signal;HPM_P1;HPM_P2
2021/09/24 00:01:11;;;;;;;;;19.00;19.00;;;;;15.63;67.72;101282.31;5043567;28;45437;-82
2021/09/24 00:03:37;;;;;;;;;16.00;15.33;;;;;15.56;67.71;101276.06;5042690;28;45192;-82
2021/09/24 00:06:03;;;;;;;;;19.67;17.00;;;;;15.52;68.07;101271.59;5042703;28;45414;-82
2021/09/24 00:08:29;;;;;;;;;17.67;17.33;;;;;15.55;68.09;101287.66;5024634;28;45660;-82
2021/09/24 00:10:55;;;;;;;;;17.33;17.00;;;;;15.53;68.49;101287.69;5042386;28;45412;-81
2021/09/24 00:13:20;;;;;;;;;15.00;15.00;;;;;15.51;68.56;101280.50;5042543;28;45067;-81
2021/09/24 00:15:46;;;;;;;;;19.33;18.33;;;;;15.56;68.09;101282.31;5025684;28;45430;-82
2021/09/24 00:18:12;;;;;;;;;17.33;17.33;;;;;15.60;68.06;101280.53;5043574;28;44859;-81
2021/09/24 00:20:38;;;;;;;;;18.00;18.00;;;;;15.60;68.85;101276.06;5044006;28;45453;-81
2021/09/24 00:23:04;;;;;;;;;17.33;15.00;;;;;15.54;70.17;101276.06;5027869;28;45408;-81
2021/09/24 00:25:31;;;;;;;;;23.00;20.33;;;;;15.51;69.49;101281.44;5047852;28;45425;-82
2021/09/24 00:27:58;;;;;;;;;14.67;14.33;;;;;15.47;70.20;101268.00;5047112;28;45351;-82
2021/09/24 00:30:26;;;;;;;;;14.33;14.33;;;;;15.44;70.70;101271.56;5047821;28;44761;-82
2021/09/24 00:32:52;;;;;;;;;17.33;16.33;;;;;15.43;72.16;101276.91;5028409;28;47705;-82
2021/09/24 00:35:18;;;;;;;;;16.67;15.67;;;;;15.35;71.60;101264.41;5030211;28;45403;-81
2021/09/24 00:37:44;;;;;;;;;18.67;18.67;;;;;15.41;70.44;101274.22;5047631;28;45410;-82
2021/09/24 00:40:11;;;;;;;;;17.00;17.00;;;;;15.39;71.29;101262.59;5029256;28;45442;-81
2021/09/24 00:42:37;;;;;;;;;16.33;16.33;;;;;15.42;70.83;101267.09;5045335;28;45463;-82
2021/09/24 00:45:04;;;;;;;;;15.33;14.67;;;;;15.40;70.83;101262.63;5047327;28;45762;-81
2021/09/24 00:47:30;;;;;;;;;11.67;11.67;;;;;15.40;71.61;101257.25;5045641;28;45949;-82
2021/09/24 00:49:56;;;;;;;;;14.67;14.67;;;;;15.40;71.91;101257.25;5046822;28;45533;-81
2021/09/24 00:52:21;;;;;;;;;9.00;9.00;;;;;15.36;72.07;101249.22;5028328;28;45510;-82
2021/09/24 00:54:50;;;;;;;;;10.67;9.67;;;;;15.40;72.23;101249.22;5029078;28;45471;-81
2021/09/24 00:57:15;;;;;;;;;8.67;8.67;;;;;15.39;73.06;101239.41;5046959;28;45413;-81
2021/09/24 00:59:42;;;;;;;;;8.33;8.00;;;;;15.46;74.27;101234.06;5047384;28;45469;-81
2021/09/24 01:02:07;;;;;;;;;8.67;7.33;;;;;15.42;73.04;101233.16;5028980;28;47183;-82
2021/09/24 01:04:33;;;;;;;;;10.33;8.67;;;;;15.47;72.30;101227.78;5044809;28;45434;-82
2021/09/24 01:07:02;;;;;;;;;10.33;8.67;;;;;15.54;72.16;101233.16;5028096;28;45435;-82
2021/09/24 01:09:27;;;;;;;;;12.00;12.00;;;;;15.53;71.61;101214.38;5028163;28;45613;-82
2021/09/24 01:11:59;;;;;;;;;12.00;10.33;;;;;15.65;71.62;101224.25;5044601;28;45443;-82
2021/09/24 01:14:30;;;;;;;;;15.00;13.00;;;;;15.70;71.36;101223.34;5026553;28;45383;-82
2021/09/24 01:16:59;;;;;;;;;12.00;9.00;;;;;15.78;71.24;101226.97;5043791;28;45444;-81
2021/09/24 01:19:27;;;;;;;;;10.67;9.00;;;;;15.74;71.63;101210.88;5027627;28;44902;-82
2021/09/24 01:21:52;;;;;;;;;9.00;9.00;;;;;15.83;71.36;101218.91;5027315;28;48375;-81
2021/09/24 01:24:18;;;;;;;;;13.67;11.00;;;;;15.82;70.96;101213.56;5045150;28;44904;-82
2021/09/24 01:26:55;;;;;;;;;10.00;8.00;;;;;15.86;70.75;101218.94;5027624;28;45407;-81
2021/09/24 01:29:23;;;;;;;;;14.33;11.67;;;;;15.81;71.39;101204.59;5046312;28;45347;-81
2021/09/24 01:31:49;;;;;;;;;9.33;9.00;;;;;15.94;71.15;101221.63;5027486;28;46901;-82
2021/09/24 01:34:14;;;;;;;;;8.33;8.00;;;;;15.89;72.25;101208.19;5027828;28;45516;-82
2021/09/24 01:36:39;;;;;;;;;10.00;9.00;;;;;15.91;71.93;101210.88;5026743;28;45460;-82
2021/09/24 01:39:10;;;;;;;;;8.33;8.33;;;;;15.89;72.59;101220.72;5045776;28;45327;-82
2021/09/24 01:41:47;;;;;;;;;10.67;10.67;;;;;15.85;71.92;101217.13;5024569;28;47617;-81
2021/09/24 01:44:13;;;;;;;;;12.67;8.67;;;;;15.80;73.00;101209.09;5024390;28;45162;-81
2021/09/24 01:46:40;;;;;;;;;8.33;8.33;;;;;15.82;72.34;101210.88;5043450;28;45717;-82
2021/09/24 01:49:06;;;;;;;;;7.33;7.33;;;;;15.77;72.23;101209.09;5025634;28;45561;-80
2021/09/24 01:51:34;;;;;;;;;8.67;6.67;;;;;15.84;71.93;101217.16;5024418;28;45615;-80
2021/09/24 01:54:01;;;;;;;;;9.00;8.00;;;;;15.90;71.58;101214.47;5025462;28;44823;-81
2021/09/24 01:56:26;;;;;;;;;10.67;10.67;;;;;15.86;72.06;101210.00;5044381;28;45374;-81
2021/09/24 01:58:52;;;;;;;;;10.33;8.67;;;;;15.90;71.92;101204.63;5025913;28;45916;-81
2021/09/24 02:01:17;;;;;;;;;8.00;8.00;;;;;15.96;73.12;101211.78;5025276;28;45419;-81
2021/09/24 02:03:42;;;;;;;;;8.67;7.00;;;;;15.94;71.79;101211.78;5043253;28;45387;-80
2021/09/24 02:06:08;;;;;;;;;8.33;8.00;;;;;15.94;72.05;101218.94;5025700;28;45499;-81
2021/09/24 02:08:33;;;;;;;;;12.00;12.00;;;;;15.98;71.65;101228.75;5043966;28;44819;-81
2021/09/24 02:10:59;;;;;;;;;8.00;8.00;;;;;15.96;71.99;101223.41;5026451;28;46781;-81
2021/09/24 02:13:24;;;;;;;;;8.33;7.33;;;;;15.99;71.65;101217.13;5044818;28;45444;-81
2021/09/24 02:15:50;;;;;;;;;9.33;9.33;;;;;16.07;71.68;101222.50;5044156;28;45732;-81
2021/09/24 02:18:17;;;;;;;;;10.00;10.00;;;;;16.11;71.23;101229.63;5044706;28;45557;-81
2021/09/24 02:20:42;;;;;;;;;9.67;9.67;;;;;16.14;72.06;101230.53;5026587;28;48263;-81
2021/09/24 02:23:08;;;;;;;;;9.33;8.00;;;;;16.15;71.46;101221.56;5046032;28;45441;-81
2021/09/24 02:25:34;;;;;;;;;13.67;12.00;;;;;16.10;71.41;101206.41;5045204;28;45520;-81
2021/09/24 02:27:59;;;;;;;;;8.00;8.00;;;;;16.14;71.95;101213.56;5045120;28;45918;-81
2021/09/24 02:30:25;;;;;;;;;7.00;7.00;;;;;16.17;71.57;101213.53;5027207;28;48097;-81
2021/09/24 02:32:50;;;;;;;;;8.00;7.67;;;;;16.21;71.63;101207.25;5028542;28;44855;-81
2021/09/24 02:35:16;;;;;;;;;10.00;8.33;;;;;16.23;71.44;101201.91;5028354;28;45607;-81
2021/09/24 02:37:42;;;;;;;;;10.33;9.00;;;;;16.34;71.48;101208.13;5045993;28;45609;-81
2021/09/24 02:40:08;;;;;;;;;9.00;9.00;;;;;16.38;71.43;101213.50;5046619;28;45449;-81
2021/09/24 02:42:34;;;;;;;;;10.00;10.00;;;;;16.41;71.27;101212.59;5047246;28;45498;-81
2021/09/24 02:44:59;;;;;;;;;10.67;10.67;;;;;16.42;71.00;101205.44;5029175;28;45286;-81
2021/09/24 02:47:25;;;;;;;;;8.00;7.00;;;;;16.51;70.95;101214.34;5048426;28;45311;-81
2021/09/24 02:49:51;;;;;;;;;8.67;8.67;;;;;16.49;70.91;101200.03;5031755;28;47040;-82
2021/09/24 02:52:24;;;;;;;;;11.33;11.00;;;;;16.54;70.93;101198.25;5030107;28;45800;-82
2021/09/24 02:54:49;;;;;;;;;10.33;8.33;;;;;16.59;70.89;101201.78;5048562;28;45433;-82
2021/09/24 02:57:15;;;;;;;;;11.33;9.67;;;;;16.56;70.73;101196.44;5054287;28;44707;-81
2021/09/24 02:59:40;;;;;;;;;11.00;9.00;;;;;16.65;70.56;101200.00;5040765;28;46911;-81
2021/09/24 03:02:06;;;;;;;;;10.67;10.00;;;;;16.68;70.48;101194.59;5040964;28;45377;-81
2021/09/24 03:04:31;;;;;;;;;8.67;8.67;;;;;16.69;70.87;101199.09;5041405;28;44827;-81
2021/09/24 03:06:57;;;;;;;;;10.67;9.00;;;;;16.70;70.71;101206.22;5058934;28;45508;-82
2021/09/24 03:09:22;;;;;;;;;10.33;10.33;;;;;16.68;70.65;101195.50;5042297;28;47003;-81
2021/09/24 03:11:48;;;;;;;;;10.67;10.67;;;;;16.68;70.52;101190.13;5060498;28;44708;-82
2021/09/24 03:17:42;;;;;;;;;11.00;9.00;;;;;16.78;70.32;101204.41;5055544;28;45394;-81
2021/09/24 03:20:15;;;;;;;;;10.00;6.67;;;;;16.76;70.69;101203.53;5029391;28;48068;-82
2021/09/24 03:22:40;;;;;;;;;9.33;8.33;;;;;16.71;70.39;101187.44;5029111;28;45371;-82
2021/09/24 03:25:06;;;;;;;;;8.00;8.00;;;;;16.69;70.34;101183.88;5028140;28;45719;-82
2021/09/24 03:27:34;;;;;;;;;15.00;10.33;;;;;16.73;70.43;101195.50;5028711;28;45456;-81
2021/09/24 03:30:00;;;;;;;;;10.00;9.33;;;;;16.63;70.58;101169.56;5045529;28;45784;-81
2021/09/24 03:32:25;;;;;;;;;8.67;8.67;;;;;16.78;70.92;101186.53;5044884;28;44893;-82
2021/09/24 03:34:50;;;;;;;;;11.00;8.33;;;;;16.77;70.75;101178.47;5026330;28;45392;-81
2021/09/24 03:37:16;;;;;;;;;11.00;9.33;;;;;16.82;70.68;101181.16;5026277;28;45470;-82
2021/09/24 03:39:42;;;;;;;;;11.67;9.67;;;;;16.80;70.79;101181.13;5043475;28;45501;-81
2021/09/24 03:42:08;;;;;;;;;11.33;9.33;;;;;16.78;70.77;101180.22;5044801;28;45497;-82
2021/09/24 03:44:35;;;;;;;;;8.00;8.00;;;;;16.75;70.66;101169.53;5026564;28;45839;-82
2021/09/24 03:47:00;;;;;;;;;9.67;9.67;;;;;16.81;70.51;101169.53;5008858;28;45496;-82
2021/09/24 03:49:26;;;;;;;;;8.67;8.67;;;;;16.86;70.40;101170.38;5025904;28;46915;-81
2021/09/24 03:51:53;;;;;;;;;13.67;12.33;;;;;16.90;70.50;101180.22;5042754;28;45248;-82
2021/09/24 03:54:19;;;;;;;;;9.00;9.00;;;;;16.89;70.46;101177.56;5026830;28;45514;-82
2021/09/24 03:56:45;;;;;;;;;8.33;8.00;;;;;16.85;70.37;101176.66;5025208;28;45387;-82
2021/09/24 03:59:11;;;;;;;;;8.67;8.67;;;;;16.84;70.60;101172.19;5045979;28;46005;-82
2021/09/24 04:01:38;;;;;;;;;9.67;9.00;;;;;16.83;70.70;101166.84;5044725;28;45532;-82
2021/09/24 04:07:25;;;;;;;;;9.33;9.33;;;;;16.80;70.51;101168.59;5044815;28;44857;-82
2021/09/24 04:09:51;;;;;;;;;8.33;7.00;;;;;16.86;70.78;101172.19;5045486;28;46154;-82
2021/09/24 04:12:16;;;;;;;;;12.00;10.00;;;;;16.84;70.74;101164.13;5046243;28;45413;-81
2021/09/24 04:14:41;;;;;;;;;9.00;8.00;;;;;16.91;70.29;101168.56;5028975;28;45437;-81
2021/09/24 04:17:08;;;;;;;;;12.33;8.33;;;;;16.89;70.75;101178.44;5048247;28;44909;-81
2021/09/24 04:19:33;;;;;;;;;10.00;8.33;;;;;16.87;70.84;101174.88;5026854;28;47673;-81
2021/09/24 04:21:59;;;;;;;;;11.67;9.00;;;;;16.87;70.72;101180.25;5045985;28;45499;-81
2021/09/24 04:24:24;;;;;;;;;12.67;11.67;;;;;16.86;70.78;101175.75;5047221;28;45518;-81
2021/09/24 04:26:50;;;;;;;;;16.67;11.67;;;;;16.84;71.20;101166.81;5029817;28;44910;-81
2021/09/24 04:29:15;;;;;;;;;14.00;12.00;;;;;16.83;71.02;101177.59;5046543;28;45402;-81
2021/09/24 04:31:41;;;;;;;;;16.67;15.33;;;;;16.79;70.97;101169.50;5046850;28;45400;-81
2021/09/24 04:34:08;;;;;;;;;15.67;12.33;;;;;16.81;70.68;101164.16;5027791;28;45272;-81
2021/09/24 04:36:34;;;;;;;;;9.67;9.33;;;;;16.87;71.22;101169.50;5045314;28;45436;-81
2021/09/24 04:39:02;;;;;;;;;15.67;13.00;;;;;16.85;70.94;101171.28;5028458;28;46583;-81
2021/09/24 04:41:28;;;;;;;;;9.00;9.00;;;;;16.81;71.04;101164.16;5045787;28;45532;-81
2021/09/24 04:43:54;;;;;;;;;11.67;10.33;;;;;16.89;70.89;101178.44;5026312;28;45528;-80
2021/09/24 04:46:19;;;;;;;;;7.67;7.67;;;;;16.92;71.10;101178.41;5026947;28;45479;-81
2021/09/24 04:48:45;;;;;;;;;10.00;10.00;;;;;16.94;71.08;101175.72;5026986;28;47021;-81
2021/09/24 04:51:11;;;;;;;;;10.33;9.33;;;;;16.90;70.63;101172.16;5046103;28;45368;-81
2021/09/24 04:53:36;;;;;;;;;11.33;9.33;;;;;16.94;71.16;101183.78;5045103;28;44794;-81
2021/09/24 04:56:02;;;;;;;;;11.00;10.00;;;;;16.93;71.09;101182.00;5045676;28;45387;-81
2021/09/24 04:58:27;;;;;;;;;9.67;9.67;;;;;16.89;71.19;101182.94;5046834;28;46103;-81
2021/09/24 05:00:53;;;;;;;;;12.00;10.67;;;;;16.87;71.04;101179.34;5045879;28;45644;-81
2021/09/24 05:03:18;;;;;;;;;13.67;10.33;;;;;16.85;70.75;101173.97;5045329;28;45846;-81
2021/09/24 05:05:43;;;;;;;;;7.67;7.67;;;;;16.86;70.93;101169.50;5046270;28;45365;-81
2021/09/24 05:08:10;;;;;;;;;11.00;9.67;;;;;16.89;71.14;101178.44;5028259;28;46937;-81
2021/09/24 05:10:36;;;;;;;;;15.00;11.00;;;;;16.83;71.14;101167.72;5028364;28;45510;-81
2021/09/24 05:13:01;;;;;;;;;11.33;10.33;;;;;16.90;71.31;101176.63;5044578;28;44917;-80
2021/09/24 05:15:28;;;;;;;;;15.00;13.67;;;;;16.88;71.08;101170.38;5027390;28;44913;-81
2021/09/24 05:17:54;;;;;;;;;14.00;13.00;;;;;16.87;71.25;101168.59;5026080;28;46908;-81
2021/09/24 05:20:19;;;;;;;;;15.00;15.00;;;;;16.83;71.78;101165.03;5043768;28;45465;-81
2021/09/24 05:22:45;;;;;;;;;16.00;14.33;;;;;16.86;71.40;101167.69;5044852;28;45449;-81
2021/09/24 05:25:12;;;;;;;;;10.67;10.67;;;;;16.85;71.69;101168.59;5027015;28;44844;-81
2021/09/24 05:27:38;;;;;;;;;11.33;11.33;;;;;16.82;71.81;101165.91;5027434;28;47485;-81
2021/09/24 05:30:05;;;;;;;;;10.67;9.67;;;;;16.78;71.61;101166.81;5027707;28;45353;-81
2021/09/24 05:32:31;;;;;;;;;13.67;13.67;;;;;16.74;72.23;101168.63;5046626;28;45489;-81
2021/09/24 05:34:56;;;;;;;;;12.33;6.67;;;;;16.73;71.74;101174.91;5045456;28;45433;-81
2021/09/24 05:38:17;;;;;;;;;10.67;8.00;;;;;16.75;71.82;101175.78;5026795;28;46735;-81
2021/09/24 05:40:43;;;;;;;;;10.33;10.00;;;;;16.75;71.98;101165.03;5045442;28;44771;-81
2021/09/24 05:43:08;;;;;;;;;12.33;12.33;;;;;16.76;71.56;101155.19;5045190;28;45468;-82
2021/09/24 05:45:33;;;;;;;;;15.00;13.00;;;;;16.76;71.48;101157.84;5046448;28;45436;-82
2021/09/24 05:47:59;;;;;;;;;10.67;8.33;;;;;16.79;71.71;101157.84;5045269;28;45441;-82
2021/09/24 05:50:26;;;;;;;;;14.33;12.67;;;;;16.84;71.67;101168.59;5045922;28;45422;-82
2021/09/24 05:52:54;;;;;;;;;9.00;9.00;;;;;16.85;71.77;101168.59;5027461;28;45372;-81
2021/09/24 05:55:22;;;;;;;;;15.67;10.33;;;;;16.78;71.60;101162.34;5045444;28;45387;-82
2021/09/24 05:57:49;;;;;;;;;12.00;9.67;;;;;16.80;71.44;101162.31;5025997;28;47195;-82
2021/09/24 06:00:16;;;;;;;;;13.00;9.00;;;;;16.92;71.57;101172.16;5025660;28;45813;-82
2021/09/24 06:02:46;;;;;;;;;12.00;10.33;;;;;16.96;71.45;101169.44;5026298;28;45529;-82
2021/09/24 06:05:13;;;;;;;;;16.00;14.00;;;;;16.99;71.19;101164.06;5045355;28;44675;-82
2021/09/24 06:07:39;;;;;;;;;15.00;12.00;;;;;17.02;70.81;101167.63;5045198;28;45819;-82
2021/09/24 06:10:42;;;;;;;;;14.00;12.33;;;;;17.08;71.17;101178.34;5026812;28;45419;-82
2021/09/24 06:13:09;;;;;;;;;13.33;11.67;;;;;17.11;71.33;101181.91;5026852;28;45420;-81
2021/09/24 06:15:35;;;;;;;;;11.67;11.67;;;;;17.06;71.16;101175.66;5012490;28;45352;-82
2021/09/24 06:18:02;;;;;;;;;11.00;11.00;;;;;17.08;70.82;101170.28;5027964;28;46953;-82
2021/09/24 06:20:28;;;;;;;;;12.67;12.67;;;;;17.16;70.96;101181.88;5030257;28;45555;-84
2021/09/24 06:22:53;;;;;;;;;11.67;10.67;;;;;17.14;70.57;101175.59;5029814;28;45410;-84
2021/09/24 06:25:20;;;;;;;;;14.67;12.00;;;;;17.17;70.90;101172.91;5030165;28;44798;-84
2021/09/24 06:27:46;;;;;;;;;13.67;13.33;;;;;17.13;70.76;101168.47;5030767;28;47881;-84
2021/09/24 06:34:12;;;;;;;;;15.00;13.33;;;;;17.11;70.88;101167.59;5048430;28;45473;-83
2021/09/24 06:36:37;;;;;;;;;13.00;10.00;;;;;17.10;70.78;101172.03;5048500;28;45658;-84
2021/09/24 06:39:03;;;;;;;;;15.33;12.00;;;;;17.14;70.89;101172.91;5029772;28;47227;-83
2021/09/24 06:41:29;;;;;;;;;13.33;11.67;;;;;17.25;70.80;101176.44;5030330;28;45579;-82
2021/09/24 06:43:55;;;;;;;;;18.00;14.00;;;;;17.34;70.59;101173.69;5032638;28;45423;-84
2021/09/24 06:46:20;;;;;;;;;12.00;12.00;;;;;17.40;70.40;101167.38;5050213;28;44758;-83
2021/09/24 06:48:46;;;;;;;;;12.00;12.00;;;;;17.44;70.47;101166.44;5015350;28;47263;-84
2021/09/24 06:51:19;;;;;;;;;18.33;17.67;;;;;17.44;70.08;101170.94;5049334;28;45540;-83
2021/09/24 06:53:44;;;;;;;;;24.00;22.33;;;;;17.38;69.98;101159.31;5050419;28;44769;-84
2021/09/24 06:56:11;;;;;;;;;13.33;13.33;;;;;17.37;70.21;101164.69;5032520;28;44869;-83
2021/09/24 06:58:37;;;;;;;;;16.67;12.33;;;;;17.37;69.99;101171.00;5047987;28;46204;-82
2021/09/24 07:01:02;;;;;;;;;11.33;9.33;;;;;17.38;70.17;101167.38;5050290;28;45402;-82
2021/09/24 07:03:27;;;;;;;;;10.33;10.00;;;;;17.37;69.97;101154.84;5037213;28;45063;-81
2021/09/24 07:09:15;;;;;;;;;12.33;11.67;;;;;17.50;69.94;101165.50;5048971;28;45436;-81
2021/09/24 07:11:48;;;;;;;;;19.33;16.00;;;;;17.51;70.02;101168.19;5049987;28;45492;-82
2021/09/24 07:14:18;;;;;;;;;14.33;14.33;;;;;17.51;69.70;101164.59;5048130;28;44820;-82
2021/09/24 07:16:45;;;;;;;;;13.33;12.00;;;;;17.68;69.78;101169.84;5048493;28;45394;-83
2021/09/24 07:19:19;;;;;;;;;13.00;12.67;;;;;17.71;69.57;101159.06;5047314;28;46471;-83
2021/09/24 07:21:45;;;;;;;;;14.00;12.00;;;;;17.85;69.31;101172.41;5029947;28;45374;-83
2021/09/24 07:24:11;;;;;;;;;13.67;12.00;;;;;17.93;69.14;101165.16;5029254;28;45427;-82
2021/09/24 07:26:36;;;;;;;;;13.67;12.67;;;;;17.99;68.89;101165.09;5047003;28;45387;-80
2021/09/24 07:29:04;;;;;;;;;13.67;13.67;;;;;18.05;68.51;101159.66;5028831;28;47004;-82
2021/09/24 07:31:30;;;;;;;;;11.00;11.00;;;;;18.12;68.00;101166.78;5018718;28;44989;-82
2021/09/24 07:33:56;;;;;;;;;14.00;13.67;;;;;18.23;67.80;101166.66;5024788;28;44802;-84
2021/09/24 07:36:25;;;;;;;;;15.00;12.00;;;;;18.31;67.37;101158.50;5040316;28;45355;-83
2021/09/24 07:38:53;;;;;;;;;14.67;12.67;;;;;18.31;67.45;101153.13;5009564;28;48124;-83
2021/09/24 07:41:27;;;;;;;;;12.67;12.67;;;;;18.28;66.97;101145.06;5017087;28;45627;-83
2021/09/24 07:44:06;;;;;;;;;13.67;13.00;;;;;18.24;66.97;101121.78;5051292;28;45442;-84
2021/09/24 07:50:06;;;;;;;;;15.00;12.33;;;;;18.27;66.87;101121.75;5043650;28;45775;-85
2021/09/24 07:52:31;;;;;;;;;11.67;10.00;;;;;18.30;66.71;101127.09;5034210;28;45324;-85
2021/09/24 07:55:09;;;;;;;;;16.33;13.00;;;;;18.43;67.04;101142.19;5053902;28;45417;-85
2021/09/24 07:57:50;;;;;;;;;;;;;;;;;;;;;
2021/09/24 08:00:30;;;;;;;;;10.00;9.33;;;;;18.45;66.88;101159.22;5049034;28;75337;-85
2021/09/24 08:02:58;;;;;;;;;13.00;10.67;;;;;18.38;66.76;101163.81;5021400;28;45527;-85
2021/09/24 08:05:31;;;;;;;;;16.67;16.67;;;;;18.14;66.80;101123.72;5049896;28;45492;-84
2021/09/24 08:08:26;;;;;;;;;11.00;11.00;;;;;18.13;66.67;101114.72;5050502;28;45330;-85
2021/09/24 08:14:18;;;;;;;;;19.67;16.33;;;;;18.38;66.34;101130.59;5054756;27;45349;-85
2021/09/24 08:16:49;;;;;;;;;14.00;13.33;;;;;18.69;66.10;101159.84;5052496;28;45488;-84
2021/09/24 08:19:29;;;;;;;;;14.00;13.00;;;;;18.92;65.40;101179.31;5031717;28;45410;-84
2021/09/24 08:22:03;;;;;;;;;11.33;10.67;;;;;18.91;65.24;101160.50;5017825;28;45330;-84
2021/09/24 08:27:58;;;;;;;;;8.67;8.67;;;;;19.17;63.88;101142.13;4998231;28;44980;-85
2021/09/24 08:30:45;;;;;;;;;10.00;10.00;;;;;19.29;63.25;101132.97;5018355;28;45419;-84
2021/09/24 08:34:02;;;;;;;;;;;;;;;;;;;;;
2021/09/24 08:37:07;;;;;;;;;;;;;;;;;;;;;
2021/09/24 08:39:45;;;;;;;;;12.00;11.67;;;;;20.15;61.39;101144.97;4918693;28;45404;-82
2021/09/24 08:42:18;;;;;;;;;10.67;10.67;;;;;20.52;61.28;101183.88;4913615;29;45443;-83
2021/09/24 08:44:51;;;;;;;;;10.33;10.00;;;;;20.67;60.65;101178.22;4895568;29;46816;-83
2021/09/24 08:47:38;;;;;;;;;;;;;;;;;;;;;
2021/09/24 08:50:06;;;;;;;;;11.00;10.33;;;;;20.60;59.64;101137.84;4910614;29;69126;-84
2021/09/24 08:52:37;;;;;;;;;10.00;10.00;;;;;20.86;59.36;101181.41;4915330;28;44959;-84
2021/09/24 08:55:13;;;;;;;;;11.67;9.33;;;;;20.90;59.38;101188.53;4883598;28;47937;-84
2021/09/24 08:58:01;;;;;;;;;11.33;10.00;;;;;20.93;59.37;101190.28;4897577;29;44762;-83
2021/09/24 09:03:48;;;;;;;;;8.00;6.67;;;;;21.01;58.39;101171.22;4875904;29;44834;-84
2021/09/24 09:06:19;;;;;;;;;11.00;10.33;;;;;21.06;58.00;101175.56;4878752;29;46605;-84
2021/09/24 09:08:48;;;;;;;;;9.67;8.67;;;;;20.96;57.85;101158.66;4873669;29;46846;-84
2021/09/24 09:11:19;;;;;;;;;9.67;9.33;;;;;21.08;58.34;101175.53;4861957;29;45739;-84
2021/09/24 09:13:56;;;;;;;;;10.67;10.67;;;;;21.02;58.07;101179.25;4908057;28;44912;-82
2021/09/24 09:16:26;;;;;;;;;9.00;8.33;;;;;20.86;57.80;101157.06;4937231;28;46957;-83
2021/09/24 09:23:51;;;;;;;;;;;;;;;;;;;;;
2021/09/24 09:30:11;;;;;;;;;;;;;;;;;;;;;
2021/09/24 09:33:48;;;;;;;;;;;;;;;;;;;;;
2021/09/24 09:40:47;;;;;;;;;;;;;;;;;;;;;
2021/09/24 09:57:18;;;;;;;;;11.33;11.33;;;;;21.78;55.76;101159.44;4666606;30;45366;-83
2021/09/24 10:00:09;;;;;;;;;12.00;11.00;;;;;21.53;55.97;101134.81;4592993;30;45361;-86
2021/09/24 10:09:49;;;;;;;;;15.67;14.67;;;;;21.69;55.11;101135.31;4700707;30;45442;-84
2021/09/24 10:12:35;;;;;;;;;13.00;12.67;;;;;21.89;55.56;101162.75;4690644;30;45394;-84
2021/09/24 10:15:32;;;;;;;;;12.67;12.00;;;;;22.01;55.07;101158.84;4701105;29;45306;-85
2021/09/24 10:29:19;;;;;;;;;12.00;10.67;;;;;22.72;53.54;101156.88;4949601;28;44901;-85
2021/09/24 10:32:38;;;;;;;;;;;;;;;;;;;;;
2021/09/24 10:36:22;;;;;;;;;14.00;11.67;;;;;22.90;52.24;101120.19;4897500;29;45337;-87
2021/09/24 10:38:49;;;;;;;;;13.33;13.33;;;;;23.08;52.17;101144.03;4870470;29;45401;-83
2021/09/24 10:41:26;;;;;;;;;10.00;9.00;;;;;23.25;52.40;101157.09;4883842;29;45705;-82
2021/09/24 10:43:58;;;;;;;;;11.33;11.33;;;;;23.21;51.82;101133.72;4876994;29;44958;-83
2021/09/24 10:46:27;;;;;;;;;13.33;13.33;;;;;23.35;52.24;101158.56;4880513;29;45424;-82
2021/09/24 10:49:22;;;;;;;;;12.00;12.00;;;;;23.40;51.73;101149.38;4886778;29;45509;-83
2021/09/24 10:52:47;;;;;;;;;;;;;;;;;;;;;
2021/09/24 10:58:49;;;;;;;;;9.67;8.67;;;;;23.30;51.55;101129.78;4914495;29;45198;-83
2021/09/24 11:01:36;;;;;;;;;12.00;11.33;;;;;23.03;49.86;101093.59;4894481;29;45556;-82
2021/09/24 11:04:14;;;;;;;;;14.33;13.67;;;;;22.82;51.63;101114.97;4898656;29;45418;-81
2021/09/24 11:07:11;;;;;;;;;10.00;9.67;;;;;22.36;51.66;101100.13;4875353;29;45403;-83
2021/09/24 11:10:38;;;;;;;;;12.00;12.00;;;;;22.27;51.87;101100.38;4844627;29;47084;-83
2021/09/24 11:13:11;;;;;;;;;11.33;11.33;;;;;22.22;52.37;101094.16;4891494;28;45852;-82
2021/09/24 11:16:10;;;;;;;;;;;;;;;;;;;;;
2021/09/24 11:19:38;;;;;;;;;;;;;;;;;;;;;
2021/09/24 11:23:01;;;;;;;;;12.00;12.00;;;;;22.30;52.64;101114.72;4853628;29;75268;-82
2021/09/24 11:29:17;;;;;;;;;14.33;10.67;;;;;22.39;52.94;101113.56;4906773;29;45771;-83
2021/09/24 11:32:36;;;;;;;;;;;;;;;;;;;;;
2021/09/24 11:35:48;;;;;;;;;12.33;12.33;;;;;22.41;52.18;101114.41;4855887;29;74925;-83
2021/09/24 11:38:19;;;;;;;;;9.33;9.33;;;;;22.26;52.47;101114.84;4875724;29;45474;-83
2021/09/24 11:41:17;;;;;;;;;13.00;11.00;;;;;21.97;52.24;101084.91;4849065;29;45361;-83
2021/09/24 11:47:16;;;;;;;;;;;;;;;;;;;;;
2021/09/24 11:50:04;;;;;;;;;13.33;13.33;;;;;22.05;52.78;101103.66;4844369;29;72075;-84
2021/09/24 11:52:56;;;;;;;;;10.67;9.33;;;;;21.75;52.87;101052.13;4891203;28;45413;-81
2021/09/24 12:05:28;;;;;;;;;16.00;14.33;;;;;22.02;53.22;101076.66;4971350;28;45516;-80
2021/09/24 12:07:54;;;;;;;;;13.00;12.67;;;;;21.97;53.17;101078.59;4973040;28;44832;-83
2021/09/24 12:10:30;;;;;;;;;9.00;7.00;;;;;21.98;52.53;101080.41;4959823;28;45548;-82
2021/09/24 12:13:17;;;;;;;;;12.00;12.00;;;;;21.77;52.77;101057.50;4913770;28;45482;-81
2021/09/24 12:16:00;;;;;;;;;12.33;12.33;;;;;21.95;53.28;101075.94;4915648;28;44810;-83
2021/09/24 12:18:48;;;;;;;;;11.67;10.00;;;;;21.85;53.11;101055.47;4915997;28;44821;-85
2021/09/24 12:21:30;;;;;;;;;11.00;11.00;;;;;21.87;53.31;101066.25;4962645;28;45561;-85
2021/09/24 12:23:57;;;;;;;;;13.00;11.00;;;;;21.84;52.83;101071.75;4989640;28;44910;-84
2021/09/24 12:34:03;;;;;;;;;10.67;10.67;;;;;21.56;52.57;101034.59;4975157;28;45844;-82
2021/09/24 12:36:54;;;;;;;;;13.00;11.33;;;;;21.46;53.20;101035.78;4957024;28;45353;-84
2021/09/24 12:39:25;;;;;;;;;12.67;10.67;;;;;21.54;53.57;101058.13;4903395;29;45399;-85
2021/09/24 12:41:52;;;;;;;;;11.00;10.33;;;;;21.46;53.55;101028.53;4905178;28;45623;-84
2021/09/24 12:44:32;;;;;;;;;11.00;11.00;;;;;21.54;53.43;101020.22;4904432;29;47587;-83
2021/09/24 12:47:02;;;;;;;;;12.00;12.00;;;;;21.80;53.04;101037.59;4901902;28;45423;-84
2021/09/24 12:49:29;;;;;;;;;9.33;9.00;;;;;21.86;53.04;101051.84;4900873;29;45547;-83
2021/09/24 12:52:18;;;;;;;;;11.67;10.33;;;;;21.67;53.11;101012.66;4883311;29;45569;-83
2021/09/24 13:01:55;;;;;;;;;;;;;;;;;;;;;
2021/09/24 13:04:35;;;;;;;;;;;;;;;;;;;;;
2021/09/24 13:07:25;;;;;;;;;14.00;12.00;;;;;21.76;53.34;101020.53;4876141;29;74422;-83
2021/09/24 13:10:46;;;;;;;;;12.67;12.33;;;;;21.83;52.52;101026.66;4865023;29;44848;-82
2021/09/24 13:16:50;;;;;;;;;13.67;13.67;;;;;21.80;52.65;101024.94;5755663;23;46850;-84
2021/09/24 13:19:24;;;;;;;;;13.33;10.67;;;;;21.81;53.16;101023.97;4992532;28;45226;-83
2021/09/24 13:22:16;;;;;;;;;12.67;12.00;;;;;21.86;52.93;101026.59;5014583;28;45488;-83
2021/09/24 13:28:08;;;;;;;;;10.33;10.33;;;;;21.87;52.97;101006.69;5009453;28;45430;-82
2021/09/24 13:30:39;;;;;;;;;12.33;11.00;;;;;21.86;53.32;101007.63;5010360;28;46757;-83
2021/09/24 13:33:18;;;;;;;;;11.67;10.67;;;;;21.87;52.90;101006.69;5004119;28;45906;-82
2021/09/24 13:35:44;;;;;;;;;11.33;11.00;;;;;21.88;52.48;101003.06;5015565;28;44913;-82
2021/09/24 13:38:10;;;;;;;;;13.33;12.00;;;;;21.82;51.99;101000.53;4981585;28;45301;-84
2021/09/24 13:40:36;;;;;;;;;13.67;12.67;;;;;21.82;52.51;101001.41;4983905;28;48052;-82
2021/09/24 13:43:09;;;;;;;;;11.67;10.00;;;;;21.83;53.19;100994.16;5015953;28;45708;-80
2021/09/24 13:45:45;;;;;;;;;13.67;13.67;;;;;21.86;52.14;101007.63;5017822;28;44978;-82
2021/09/24 13:48:24;;;;;;;;;;;;;;;;;;;;;
2021/09/24 13:50:53;;;;;;;;;9.67;9.00;;;;;21.84;52.37;100991.41;5003019;28;74685;-81
2021/09/24 13:53:22;;;;;;;;;14.67;13.67;;;;;21.78;52.77;100976.22;4995429;28;44753;-81
2021/09/24 13:55:54;;;;;;;;;12.67;12.67;;;;;21.78;52.32;100973.53;5010808;28;45712;-82